Wind From: 20-09-2018 14:00 Until: 20:00 warning for: Wind Level: Yellow info button
suomi:
Tuulivaroitus maa-alueille: Lounaistuuli on voimakasta, tuulen nopeus puuskissa 15 m/s.

svenska:
Vindvarning för landområden: är den sydvästliga vinden kraftigt, i vindbyarna 15 m/s.

english:
Wind warning for land areas: , strong winds from southwest may bring strong gusts of 15 m/s. 


Thunder radar more information blitzortung!


Löydät sääaseman tiedot myös:

European Weather Network

Finland Weather Exchange

Weather Underground

AWEKAS



Weather Underground säähistoriasivu

Päivittäin yhteenveto Joulukuu 7, 2017 Yksiköt:  Englantilaiset    Metriset   Molemmat
« Edellinen Päivä
Seuraava Päivä »
Päivittäin Viikoittain Kuukausittain Vuosittain Mukautettu
  Korkea: Matala: Keskiarvo:
Lämpötila: TemperatureC °F -4.9 °F -3.3 °F
Kastepiste: DewpointC °F -5.5 °F -3.9 °F
Kosteus: Humidity % 94 % 95 %
Tuulen nopeus: WindSpeedKMH mph 0.0 mph 1.5 mph
Tuulenpuuska: WindSpeedGustKMH mph - -
Tuuli:- - SSE
Ilmanpaine: PressurehPa in 986.0 in -
Sade: 0.0 in    
Historical Graphs
 
 
Taulukkotiedot Joulukuu 7, 2017
Aika Lämpötila Kastepiste Ilmanpaine Tuuli Tuulen nopeus Tuulenpuuska Kosteus Sademäärä (tunneittain)
TemperatureC °F DewpointC °F PressurehPa in Calm     Humidity % HourlyPrecipMM in
00:00 -4.8 °F -5.5 °F 1005.3 in WSW 1.6 mph 6.4 mph 95 % 0.0 in
00:15 -4.9 °F -5.4 °F 1005.3 in Calm   3.2 mph 96 % 0.0 in
00:30 -4.9 °F -5.5 °F 1005.3 in SW 1.6 mph 4.8 mph 96 % 0.0 in
00:45 -4.9 °F -5.5 °F 1005.3 in SSE 1.6 mph 4.8 mph 96 % 0.0 in
01:00 -4.9 °F -5.5 °F 1005.3 in Calm   3.2 mph 96 % 0.0 in
01:15 -4.9 °F -5.5 °F 1005.0 in Calm   3.2 mph 96 % 0.0 in
01:30 -4.9 °F -5.4 °F 1005.3 in SSW 1.6 mph 4.8 mph 96 % 0.0 in
01:45 -4.9 °F -5.4 °F 1005.0 in Calm   3.2 mph 96 % 0.0 in
02:00 -4.8 °F -5.4 °F 1005.0 in South 1.6 mph 6.4 mph 96 % 0.0 in
02:15 -4.8 °F -5.5 °F 1005.0 in South 1.6 mph 6.4 mph 95 % 0.0 in
02:30 -4.8 °F -5.5 °F 1005.0 in Calm     95 % 0.0 in
02:45 -4.7 °F -5.3 °F 1005.0 in Calm   3.2 mph 96 % 0.0 in
03:00 -4.7 °F -5.2 °F 1005.0 in Calm     96 % 0.0 in
03:15 -4.6 °F -5.2 °F 1005.0 in Calm     96 % 0.0 in
03:30 -4.6 °F -5.1 °F 1005.0 in Calm     96 % 0.0 in
03:45 -4.5 °F -5.0 °F 1005.0 in Calm     96 % 0.0 in
04:00 -4.4 °F -4.9 °F 1004.6 in Calm     96 % 0.0 in
04:15 -4.3 °F -4.9 °F 1004.6 in Calm     96 % 0.0 in
04:30 -4.2 °F -4.8 °F 1004.3 in Calm     96 % 0.0 in
04:45 -4.2 °F -4.7 °F 1004.3 in Calm     96 % 0.0 in
05:00 -4.1 °F -4.6 °F 1004.3 in Calm     96 % 0.0 in
05:30 -3.8 °F -4.4 °F 1003.9 in Calm   3.2 mph 96 % 0.0 in
05:45 -3.7 °F -4.3 °F 1003.9 in Calm   3.2 mph 96 % 0.0 in
06:00 -3.7 °F -4.2 °F 1003.9 in Calm   6.4 mph 96 % 0.0 in
06:15 -3.6 °F -4.2 °F 1003.9 in Calm   3.2 mph 96 % 0.0 in
06:30 -3.6 °F -4.3 °F 1003.9 in Calm   4.8 mph 95 % 0.0 in
06:45 -3.6 °F -4.3 °F 1003.9 in Calm   3.2 mph 95 % 0.0 in
07:00 -3.6 °F -4.2 °F 1003.9 in Calm   9.7 mph 95 % 0.0 in
07:15 -3.6 °F -4.2 °F 1003.6 in Calm   6.4 mph 95 % 0.0 in
07:30 -3.6 °F -4.2 °F 1003.9 in SSE 1.6 mph 9.7 mph 95 % 0.0 in
07:45 -3.6 °F -4.2 °F 1003.6 in SSE 1.6 mph 8.0 mph 95 % 0.0 in
08:00 -3.5 °F -4.2 °F 1003.6 in SSE 1.6 mph 6.4 mph 95 % 0.0 in
08:15 -3.4 °F -4.1 °F 1003.6 in SSE 1.6 mph 9.7 mph 95 % 0.0 in
08:30 -3.4 °F -4.1 °F 1003.3 in SE 1.6 mph 8.0 mph 95 % 0.0 in
08:45 -3.4 °F -4.1 °F 1003.3 in SE 1.6 mph 8.0 mph 95 % 0.0 in
09:00 -3.6 °F -4.3 °F 1003.3 in SSE 1.6 mph 9.7 mph 95 % 0.0 in
09:15 -3.7 °F -4.4 °F 1002.9 in SE 1.6 mph 9.7 mph 95 % 0.0 in
09:30 -3.9 °F -4.8 °F 1002.9 in SE 1.6 mph 8.0 mph 94 % 0.0 in
09:45 -4.2 °F -5.0 °F 1002.6 in SSW 1.6 mph 11.3 mph 94 % 0.0 in
10:00 -4.3 °F -5.2 °F 1002.6 in Calm   6.4 mph 94 % 0.0 in
10:15 -4.4 °F -5.3 °F 1002.6 in Calm   6.4 mph 94 % 0.0 in
10:30 -4.4 °F -5.1 °F 1002.3 in Calm   3.2 mph 95 % 0.0 in
10:45 -4.4 °F -5.1 °F 1002.3 in Calm   8.0 mph 95 % 0.0 in
11:00 -4.4 °F -5.1 °F 1001.9 in Calm   4.8 mph 95 % 0.0 in
11:15 -4.3 °F -5.0 °F 1001.6 in Calm   6.4 mph 95 % 0.0 in
11:30 -4.2 °F -4.8 °F 1001.2 in Calm   6.4 mph 95 % 0.0 in
11:45 -4.1 °F -4.7 °F 1001.2 in Calm   6.4 mph 95 % 0.0 in
12:00 -4.0 °F -4.7 °F 1001.2 in Calm   6.4 mph 95 % 0.0 in
12:15 -4.0 °F -4.7 °F 1000.9 in Calm   6.4 mph 95 % 0.0 in
12:30 -3.9 °F -4.6 °F 1000.9 in Calm   6.4 mph 95 % 0.0 in
12:45 -3.9 °F -4.6 °F 1000.6 in Calm     95 % 0.0 in
13:00 -3.8 °F -4.7 °F 1000.6 in Calm   6.4 mph 94 % 0.0 in
13:15 -3.8 °F -4.5 °F 999.9 in Calm   4.8 mph 95 % 0.0 in
13:30 -3.8 °F -4.6 °F 999.9 in SSE 1.6 mph 8.0 mph 94 % 0.0 in
13:45 -3.7 °F -4.5 °F 999.5 in Calm   8.0 mph 94 % 0.0 in
14:00 -3.7 °F -4.5 °F 999.5 in South 1.6 mph 8.0 mph 94 % 0.0 in
14:15 -3.6 °F -4.2 °F 999.2 in South 1.6 mph 9.7 mph 95 % 0.0 in
14:30 -3.6 °F -4.2 °F 998.9 in SSE 1.6 mph 6.4 mph 95 % 0.0 in
14:45 -3.4 °F -4.1 °F 998.5 in South 1.6 mph 8.0 mph 95 % 0.0 in
15:15 -3.3 °F -4.0 °F 997.9 in SE 1.6 mph 6.4 mph 95 % 0.0 in
15:30 -3.2 °F -3.9 °F 997.2 in SW 1.6 mph 6.4 mph 95 % 0.0 in
15:45 -3.1 °F -3.6 °F 996.5 in East 1.6 mph 11.3 mph 96 % 0.0 in
16:00 -2.8 °F -3.4 °F 996.2 in East 1.6 mph 9.7 mph 96 % 0.0 in
16:15 -2.7 °F -3.2 °F 995.8 in SE 1.6 mph 9.7 mph 96 % 0.0 in
16:30 -2.5 °F -3.1 °F 995.5 in East 1.6 mph 9.7 mph 96 % 0.0 in
17:00 -2.3 °F -2.8 °F 994.8 in SE 3.2 mph 11.3 mph 96 % 0.0 in
17:15 -2.2 °F -2.8 °F 994.1 in SE 3.2 mph 14.5 mph 96 % 0.0 in
17:30 -2.2 °F -2.7 °F 993.8 in SE 3.2 mph 12.9 mph 96 % 0.0 in
17:45 -2.2 °F -2.7 °F 993.5 in SE 3.2 mph 16.1 mph 96 % 0.0 in
18:15 -2.1 °F -2.6 °F 992.4 in ESE 3.2 mph 17.7 mph 96 % 0.0 in
18:30 -1.9 °F -2.5 °F 992.1 in SSE 4.8 mph 14.5 mph 96 % 0.0 in
18:45 -1.8 °F -2.2 °F 991.8 in SE 3.2 mph 9.7 mph 97 % 0.0 in
19:00 -1.8 °F -2.2 °F 991.4 in SSE 4.8 mph 14.5 mph 97 % 0.0 in
19:15 -1.7 °F -2.1 °F 991.1 in SSE 4.8 mph 12.9 mph 97 % 0.0 in
19:45 -1.6 °F -2.0 °F 990.4 in SSE 3.2 mph 14.5 mph 97 % 0.0 in
20:00 -1.4 °F -1.9 °F 990.1 in SE 4.8 mph 17.7 mph 97 % 0.0 in
20:30 -1.3 °F -1.7 °F 989.4 in South 3.2 mph 14.5 mph 97 % 0.0 in
20:45 -1.2 °F -1.6 °F 989.4 in South 4.8 mph 14.5 mph 97 % 0.0 in
21:00 -1.1 °F -1.5 °F 989.1 in South 4.8 mph 14.5 mph 97 % 0.0 in
22:15 -0.6 °F -1.0 °F 987.0 in SSE 4.8 mph 12.9 mph 97 % 0.0 in
22:30 -0.4 °F -0.9 °F 987.0 in South 4.8 mph 12.9 mph 97 % 0.0 in
22:45 -0.3 °F -0.8 °F 986.7 in SSE 4.8 mph 19.3 mph 97 % 0.0 in
23:00 -0.1 °F -0.5 °F 986.3 in South 4.8 mph 16.1 mph 97 % 0.0 in
23:15 -0.1 °F -0.5 °F 986.3 in SSE 4.8 mph 14.5 mph 97 % 0.0 in
23:30 0.1 °F -0.4 °F 986.3 in South 4.8 mph 12.9 mph 97 % 0.0 in
23:45 0.2 °F -0.3 °F 986.0 in SSE 4.8 mph 12.9 mph 97 % 0.0 in
Esan sääasema
Terveisin Weather Underground - 2.75 mb

Alkuperäinen skripti  Jim McMurry - jmcmurry@mwt.net Sovitettu myös templatelle  Wim van der Kuil - Leuven-Template.eu

Laitteet joita käytämme:

Sääasema
Davis VP2

Sääasemaohjelma
Cumulus

Sääaseman tietokone
Asus EeePC

Palveluntarjoaja
Suncomet

Davis VP2

Cumulus

Asus EeePC

Suncomet